Time;durP1;ratioP1;P1;durP2;ratioP2;P2;SDS_P1;SDS_P2;PMS_P1;PMS_P2;Temp;Humidity;BMP_temperature;BMP_pressure;BME280_temperature;BME280_humidity;BME280_pressure;Samples;Min_cycle;Max_cycle;Signal;HPM_P1;HPM_P2
2022/10/03 00:02:13;;;;;;;25.55;3.10;;;9.70;99.90;;;;;;4949630;28;234875;-74
2022/10/03 00:04:45;;;;;;;23.10;3.30;;;9.70;99.90;;;;;;5008056;28;20072;-74
2022/10/03 00:07:20;;;;;;;22.60;2.97;;;9.70;99.90;;;;;;4991509;28;190355;-73
2022/10/03 00:10:06;;;;;;;20.60;3.00;;;9.70;99.90;;;;;;5018405;28;20058;-75
2022/10/03 00:12:57;;;;;;;16.50;2.55;;;9.60;99.90;;;;;;4976480;28;205978;-76
2022/10/03 00:15:29;;;;;;;19.15;2.97;;;9.60;99.90;;;;;;4956365;28;212562;-73
2022/10/03 00:18:03;;;;;;;24.83;3.35;;;9.60;99.90;;;;;;5007582;28;20057;-74
2022/10/03 00:20:35;;;;;;;24.77;3.40;;;9.60;99.90;;;;;;4957169;28;219634;-74
2022/10/03 00:23:35;;;;;;;22.80;3.45;;;9.50;99.90;;;;;;5013807;28;20065;-74
2022/10/03 00:26:29;;;;;;;19.95;3.28;;;9.60;99.90;;;;;;4954725;28;206099;-74
2022/10/03 00:29:13;;;;;;;25.02;3.40;;;9.50;99.90;;;;;;5011141;28;20192;-74
2022/10/03 00:31:45;;;;;;;21.83;3.47;;;9.50;99.90;;;;;;4946194;28;131245;-76
2022/10/03 00:34:28;;;;;;;20.77;3.20;;;9.60;99.90;;;;;;4990417;28;20041;-72
2022/10/03 00:37:30;;;;;;;27.60;3.22;;;9.60;99.90;;;;;;4963123;28;207503;-75
2022/10/03 00:40:37;;;;;;;18.77;2.85;;;9.60;99.90;;;;;;4966310;28;20559;-74
2022/10/03 00:43:39;;;;;;;24.02;3.35;;;9.50;99.90;;;;;;4839537;29;205957;-73
2022/10/03 00:46:33;;;;;;;17.23;2.80;;;9.50;99.90;;;;;;4837005;29;217138;-73
2022/10/03 00:49:08;;;;;;;19.90;3.17;;;9.50;99.90;;;;;;4883536;29;20063;-74
2022/10/03 00:52:09;;;;;;;22.48;2.90;;;9.50;99.90;;;;;;4847218;29;205095;-73
2022/10/03 00:54:35;;;;;;;;;;;9.50;99.90;;;;;;4848488;29;20064;-73
2022/10/03 00:57:33;;;;;;;16.10;2.70;;;9.40;99.90;;;;;;4833997;29;172999;-74
2022/10/03 01:00:10;;;;;;;19.73;2.90;;;9.40;99.90;;;;;;4794467;29;20084;-74
2022/10/03 01:03:28;;;;;;;18.98;2.90;;;9.40;99.90;;;;;;4729387;29;209461;-74
2022/10/03 01:06:03;;;;;;;21.65;2.83;;;9.40;99.90;;;;;;4679833;30;205536;-74
2022/10/03 01:09:02;;;;;;;20.63;2.85;;;9.40;99.90;;;;;;4727252;30;20060;-74
2022/10/03 01:12:00;;;;;;;18.73;2.67;;;9.30;99.90;;;;;;4673379;30;206812;-74
2022/10/03 01:15:08;;;;;;;20.83;3.05;;;9.30;99.90;;;;;;4723240;30;20202;-72
2022/10/03 01:17:52;;;;;;;25.48;3.35;;;9.30;99.90;;;;;;4680906;30;207222;-73
2022/10/03 01:20:27;;;;;;;21.38;2.80;;;9.30;99.90;;;;;;4727856;29;151143;-74
2022/10/03 01:23:17;;;;;;;19.67;3.35;;;9.30;99.90;;;;;;4789754;29;20055;-74
2022/10/03 01:26:01;;;;;;;16.80;3.05;;;9.30;99.90;;;;;;4761670;29;208596;-74
2022/10/03 01:32:07;;;;;;;15.48;2.50;;;9.40;99.90;;;;;;4801423;29;207383;-74
2022/10/03 01:34:50;;;;;;;18.50;2.95;;;9.40;99.90;;;;;;4844138;29;20057;-73
2022/10/03 01:38:00;;;;;;;22.38;2.78;;;9.30;99.90;;;;;;4876955;28;227129;-73
2022/10/03 01:40:28;;;;;;;18.42;2.90;;;9.30;99.90;;;;;;4866549;28;210697;-74
2022/10/03 01:43:16;;;;;;;18.40;2.70;;;9.30;99.90;;;;;;4965325;28;21578;-74
2022/10/03 01:46:02;;;;;;;17.75;2.50;;;9.30;99.90;;;;;;4942443;28;134551;-74
2022/10/03 01:48:56;;;;;;;21.30;3.35;;;9.30;99.90;;;;;;4964477;28;20062;-74
2022/10/03 01:51:39;;;;;;;19.05;3.03;;;9.30;99.90;;;;;;4915632;28;213190;-74
2022/10/03 01:54:20;;;;;;;19.30;2.90;;;9.40;99.90;;;;;;4973104;28;20527;-74
2022/10/03 01:56:57;;;;;;;21.58;3.05;;;9.40;99.90;;;;;;4902734;28;206995;-73
2022/10/03 01:59:37;;;;;;;18.63;3.00;;;9.50;99.90;;;;;;4963827;28;20050;-74
2022/10/03 02:02:12;;;;;;;20.38;3.58;;;9.60;99.90;;;;;;4924426;28;207109;-74
2022/10/03 02:05:07;;;;;;;19.05;2.75;;;9.60;99.90;;;;;;4971044;28;20065;-74
2022/10/03 02:08:02;;;;;;;20.42;3.20;;;9.70;99.90;;;;;;4889579;28;207069;-74
2022/10/03 02:10:31;;;;;;;22.45;2.72;;;9.80;99.90;;;;;;4914844;28;167831;-75
2022/10/03 02:13:24;;;;;;;19.90;3.03;;;9.80;99.90;;;;;;4926392;29;20051;-74
2022/10/03 02:16:02;;;;;;;15.80;2.58;;;9.90;99.90;;;;;;4902669;28;204944;-74
2022/10/03 02:18:47;;;;;;;21.67;2.97;;;9.90;99.90;;;;;;4933662;28;20051;-73
2022/10/03 02:21:17;;;;;;;17.10;2.70;;;9.90;99.90;;;;;;4890637;28;212763;-75
2022/10/03 02:23:45;;;;;;;16.48;3.08;;;9.90;99.90;;;;;;4943424;28;20051;-73
2022/10/03 02:26:39;;;;;;;19.48;2.65;;;9.80;99.90;;;;;;4917705;28;205863;-74
2022/10/03 02:29:26;;;;;;;17.52;2.65;;;9.80;99.90;;;;;;4964820;28;20093;-74
2022/10/03 02:32:07;;;;;;;18.58;2.53;;;9.70;99.90;;;;;;4930136;28;209844;-74
2022/10/03 02:35:09;;;;;;;24.67;3.50;;;9.70;99.90;;;;;;4951431;28;20061;-74
2022/10/03 02:37:47;;;;;;;19.50;2.90;;;9.70;99.90;;;;;;4930436;28;210285;-74
2022/10/03 02:40:38;;;;;;;17.30;2.75;;;9.70;99.90;;;;;;4949138;28;100914;-73
2022/10/03 02:43:42;;;;;;;19.83;2.80;;;9.70;99.90;;;;;;4947663;28;205324;-73
2022/10/03 02:46:38;;;;;;;22.30;2.97;;;9.70;99.90;;;;;;4972337;28;205468;-74
2022/10/03 02:49:27;;;;;;;20.00;2.90;;;9.70;99.90;;;;;;5005541;28;20043;-73
2022/10/03 02:52:07;;;;;;;21.48;2.90;;;9.60;99.90;;;;;;4950181;28;247391;-74
2022/10/03 02:55:16;;;;;;;16.92;3.13;;;9.60;99.90;;;;;;5004868;28;20054;-74
2022/10/03 02:58:04;;;;;;;22.13;3.00;;;9.60;99.90;;;;;;4975153;28;209098;-75
2022/10/03 03:00:57;;;;;;;21.42;3.00;;;9.50;99.90;;;;;;4963472;28;207046;-73
2022/10/03 03:03:53;;;;;;;20.65;3.47;;;9.60;99.90;;;;;;5019656;28;20042;-73
2022/10/03 03:06:44;;;;;;;21.80;3.47;;;9.60;99.90;;;;;;4941770;28;217718;-74
2022/10/03 03:09:29;;;;;;;24.17;3.42;;;9.60;99.90;;;;;;4999442;28;20054;-73
2022/10/03 03:12:28;;;;;;;22.60;2.63;;;9.60;99.90;;;;;;4937986;28;207648;-74
2022/10/03 03:15:31;;;;;;;24.73;3.15;;;9.60;99.90;;;;;;4908486;29;20059;-74
2022/10/03 03:18:33;;;;;;;13.38;2.70;;;9.60;99.90;;;;;;4868672;29;122040;-74
2022/10/03 03:21:22;;;;;;;17.05;3.03;;;9.70;99.90;;;;;;4852168;29;215014;-74
2022/10/03 03:23:57;;;;;;;17.60;2.90;;;9.60;99.90;;;;;;4896685;29;20052;-74
2022/10/03 03:26:49;;;;;;;17.60;3.42;;;9.60;99.90;;;;;;4852311;29;198311;-74
2022/10/03 03:29:28;;;;;;;21.88;3.08;;;9.60;99.90;;;;;;4894852;29;20067;-73
2022/10/03 03:32:03;;;;;;;19.08;2.97;;;9.60;99.90;;;;;;4877171;29;203101;-74
2022/10/03 03:34:41;;;;;;;22.52;3.42;;;9.60;99.90;;;;;;4904368;29;20051;-74
2022/10/03 03:37:16;;;;;;;23.13;3.47;;;9.60;99.90;;;;;;4877255;29;207081;-74
2022/10/03 03:39:53;;;;;;;18.10;2.88;;;9.60;99.90;;;;;;4910039;29;20056;-75
2022/10/03 03:42:50;;;;;;;22.70;3.10;;;9.60;99.90;;;;;;4857169;29;210036;-73
2022/10/03 03:45:39;;;;;;;19.02;3.25;;;9.50;99.90;;;;;;4887947;28;210853;-75
2022/10/03 03:48:25;;;;;;;17.15;3.33;;;9.50;99.90;;;;;;4935550;28;20055;-74
2022/10/03 03:51:27;;;;;;;23.85;3.63;;;9.40;99.90;;;;;;4889881;28;140719;-74
2022/10/03 03:54:08;;;;;;;18.55;3.15;;;9.40;99.90;;;;;;4989946;28;20073;-74
2022/10/03 03:57:00;;;;;;;15.05;3.03;;;9.40;99.90;;;;;;4953157;28;233952;-74
2022/10/03 03:59:47;;;;;;;19.73;2.72;;;9.40;99.90;;;;;;4984646;28;20046;-74
2022/10/03 04:02:31;;;;;;;21.90;3.25;;;9.30;99.90;;;;;;4986148;28;206511;-74
2022/10/03 04:05:18;;;;;;;23.85;3.45;;;9.30;99.90;;;;;;5013047;28;20045;-74
2022/10/03 04:08:03;;;;;;;17.48;2.50;;;9.30;99.90;;;;;;4960573;28;210846;-74
2022/10/03 04:10:41;;;;;;;20.13;3.03;;;9.30;99.90;;;;;;4948860;28;213309;-74
2022/10/03 04:13:28;;;;;;;14.60;3.00;;;9.30;99.90;;;;;;5015349;28;20053;-74
2022/10/03 04:16:13;;;;;;;19.38;2.90;;;9.30;99.90;;;;;;4969069;28;209350;-73
2022/10/03 04:18:59;;;;;;;19.60;3.03;;;9.20;99.90;;;;;;5005969;28;20064;-73
2022/10/03 04:21:34;;;;;;;18.80;3.28;;;9.20;99.90;;;;;;4981712;28;215173;-74
2022/10/03 04:24:36;;;;;;;17.27;2.88;;;9.20;99.90;;;;;;5002525;28;20050;-73
2022/10/03 04:27:23;;;;;;;14.20;2.78;;;9.20;99.90;;;;;;4973929;28;213980;-75
2022/10/03 04:30:13;;;;;;;18.10;3.05;;;9.20;99.90;;;;;;5009403;28;20045;-74
2022/10/03 04:32:48;;;;;;;20.25;2.88;;;9.20;99.90;;;;;;4979441;28;207588;-74
2022/10/03 04:35:35;;;;;;;18.83;3.42;;;9.10;99.90;;;;;;4979244;28;210470;-74
2022/10/03 04:38:59;;;;;;;19.33;3.10;;;9.10;99.90;;;;;;4985309;28;204423;-74
2022/10/03 04:41:48;;;;;;;16.60;2.90;;;9.10;99.90;;;;;;4961368;28;174905;-74
2022/10/03 04:44:38;;;;;;;19.08;2.88;;;9.10;99.90;;;;;;4966565;28;20058;-75
2022/10/03 04:47:39;;;;;;;17.77;2.72;;;9.10;99.90;;;;;;4954047;28;214129;-76
2022/10/03 04:51:04;;;;;;;20.50;2.65;;;9.10;99.90;;;;;;4946556;28;20047;-74
2022/10/03 04:53:44;;;;;;;21.65;3.13;;;9.10;99.90;;;;;;4848258;29;126931;-75
2022/10/03 04:56:33;;;;;;;25.85;3.30;;;9.20;99.90;;;;;;4834775;29;206011;-74
2022/10/03 04:59:23;;;;;;;17.23;2.63;;;9.20;99.90;;;;;;4858566;29;20064;-75
2022/10/03 05:02:13;;;;;;;16.50;2.70;;;9.10;99.90;;;;;;4831260;29;217109;-74
2022/10/03 05:04:57;;;;;;;13.00;2.47;;;9.00;99.90;;;;;;4852836;29;20069;-74
2022/10/03 05:07:40;;;;;;;15.85;2.95;;;9.00;99.90;;;;;;4833958;29;136742;-74
2022/10/03 05:10:39;;;;;;;14.02;2.55;;;8.90;99.90;;;;;;4874462;29;20057;-76
2022/10/03 05:13:33;;;;;;;14.77;2.85;;;8.80;99.90;;;;;;4840606;29;23266;-75
2022/10/03 05:16:21;;;;;;;16.60;2.78;;;8.80;99.90;;;;;;4830870;29;210058;-75
2022/10/03 05:18:56;;;;;;;17.25;2.95;;;8.80;99.90;;;;;;4867165;29;20049;-75
2022/10/03 05:21:40;;;;;;;18.67;3.10;;;8.80;99.90;;;;;;4834757;29;207308;-74
2022/10/03 05:24:44;;;;;;;20.58;3.30;;;8.80;99.90;;;;;;4877505;29;20060;-73
2022/10/03 05:27:35;;;;;;;20.30;3.05;;;8.80;99.90;;;;;;4874218;28;209137;-74
2022/10/03 05:30:39;;;;;;;25.73;2.83;;;8.80;99.90;;;;;;4971718;28;20068;-74
2022/10/03 05:33:24;;;;;;;15.15;3.22;;;8.70;99.90;;;;;;4949742;28;164055;-75
2022/10/03 05:36:05;;;;;;;17.17;3.13;;;8.70;99.90;;;;;;4959163;28;218038;-74
2022/10/03 05:39:10;;;;;;;17.83;2.83;;;8.70;99.90;;;;;;4985646;28;20045;-74
2022/10/03 05:41:38;;;;;;;17.90;3.15;;;8.70;99.90;;;;;;4945001;28;193824;-74
2022/10/03 05:44:14;;;;;;;15.93;2.78;;;8.70;99.90;;;;;;5004871;28;20422;-73
2022/10/03 05:46:48;;;;;;;16.02;2.78;;;8.70;99.90;;;;;;4977263;28;211963;-73
2022/10/03 05:49:26;;;;;;;16.50;3.00;;;8.70;99.90;;;;;;5001767;28;20451;-73
2022/10/03 05:52:02;;;;;;;15.30;3.00;;;8.60;99.90;;;;;;4975803;28;236481;-74
2022/10/03 05:54:50;;;;;;;18.25;2.95;;;8.70;99.90;;;;;;5004106;28;20824;-73
2022/10/03 05:58:07;;;;;;;15.73;2.85;;;8.60;99.90;;;;;;4978488;28;217935;-73
2022/10/03 06:01:12;;;;;;;14.43;2.67;;;8.60;99.90;;;;;;4944662;28;209620;-72
2022/10/03 06:04:21;;;;;;;13.55;2.95;;;8.60;99.90;;;;;;4879936;29;20071;-73
2022/10/03 06:06:55;;;;;;;15.93;2.95;;;8.50;99.90;;;;;;4868759;29;209404;-73
2022/10/03 06:09:39;;;;;;;15.50;3.08;;;8.50;99.90;;;;;;4906143;29;20044;-73
2022/10/03 06:12:23;;;;;;;16.73;3.50;;;8.50;99.90;;;;;;4865410;29;219299;-74
2022/10/03 06:15:07;;;;;;;19.60;3.25;;;8.60;99.90;;;;;;4895991;29;20093;-74
2022/10/03 06:18:20;;;;;;;13.80;2.88;;;8.60;99.90;;;;;;4877494;29;219912;-74
2022/10/03 06:21:25;;;;;;;14.55;3.35;;;8.60;99.90;;;;;;4830819;29;234243;-74
2022/10/03 06:24:12;;;;;;;13.48;3.25;;;8.60;99.90;;;;;;4821564;29;20055;-73
2022/10/03 06:27:24;;;;;;;14.73;2.88;;;8.60;99.90;;;;;;4780319;29;210237;-73
2022/10/03 06:30:19;;;;;;;16.77;2.75;;;8.60;99.90;;;;;;4820210;29;20089;-74
2022/10/03 06:33:07;;;;;;;13.70;2.97;;;8.60;99.90;;;;;;4780504;29;170387;-74
2022/10/03 06:36:00;;;;;;;21.65;3.65;;;8.60;99.90;;;;;;4758994;29;206550;-74
2022/10/03 06:39:14;;;;;;;14.90;3.17;;;8.60;99.90;;;;;;4810531;29;20042;-74
2022/10/03 06:42:18;;;;;;;20.42;3.70;;;8.70;99.90;;;;;;4806323;29;204458;-75
2022/10/03 06:45:09;;;;;;;16.90;3.45;;;8.70;99.90;;;;;;4874882;29;20040;-74
2022/10/03 06:47:46;;;;;;;18.08;3.80;;;8.80;99.90;;;;;;4821272;29;217910;-74
2022/10/03 06:50:24;;;;;;;20.80;3.55;;;8.90;99.90;;;;;;4859914;29;75172;-74
2022/10/03 06:53:30;;;;;;;16.13;3.47;;;9.00;99.90;;;;;;4831468;29;64704;-75
2022/10/03 06:55:59;;;;;;;15.60;3.58;;;9.00;99.90;;;;;;4830704;29;206177;-75
2022/10/03 06:58:55;;;;;;;17.35;3.63;;;9.10;99.90;;;;;;4914130;29;20473;-75
2022/10/03 07:01:30;;;;;;;17.25;3.47;;;9.20;99.90;;;;;;4895490;28;206617;-75
2022/10/03 07:04:05;;;;;;;18.42;3.28;;;9.20;99.90;;;;;;4971030;28;20050;-75
2022/10/03 07:06:52;;;;;;;15.10;3.50;;;9.30;99.90;;;;;;4916624;28;208100;-75
2022/10/03 07:09:37;;;;;;;21.23;4.00;;;9.40;99.90;;;;;;4984742;28;20547;-74
2022/10/03 07:12:36;;;;;;;14.55;3.40;;;9.50;99.90;;;;;;4914903;28;209103;-75
2022/10/03 07:15:12;;;;;;;15.55;3.35;;;9.50;99.90;;;;;;4989777;28;20057;-75
2022/10/03 07:18:00;;;;;;;17.42;3.65;;;9.70;99.90;;;;;;4893451;28;204663;-74
2022/10/03 07:20:50;;;;;;;16.57;3.37;;;9.70;99.90;;;;;;4962511;28;212261;-74
2022/10/03 07:24:01;;;;;;;18.15;3.92;;;9.80;99.90;;;;;;5007784;28;20053;-75
2022/10/03 07:26:53;;;;;;;18.02;3.50;;;9.90;99.90;;;;;;4974457;28;210939;-75
2022/10/03 07:29:25;;;;;;;19.40;3.85;;;10.00;99.90;;;;;;5005113;28;20049;-75
2022/10/03 07:32:12;;;;;;;19.67;3.53;;;10.10;99.90;;;;;;4967782;28;206092;-75
2022/10/03 07:35:23;;;;;;;19.52;3.20;;;10.10;99.90;;;;;;5009407;28;20049;-75
2022/10/03 07:41:18;;;;;;;16.55;3.40;;;10.20;99.90;;;;;;4963886;28;206659;-74
2022/10/03 07:43:49;;;;;;;18.90;3.55;;;10.40;99.90;;;;;;5011963;28;20054;-74
2022/10/03 07:46:43;;;;;;;15.05;2.88;;;10.50;99.90;;;;;;4970556;28;205755;-74
2022/10/03 07:49:41;;;;;;;20.20;3.17;;;10.60;99.90;;;;;;5011821;28;20049;-76
2022/10/03 07:52:28;;;;;;;16.85;2.90;;;10.70;99.90;;;;;;4984050;28;212173;-76
2022/10/03 07:55:13;;;;;;;15.95;2.75;;;10.80;99.90;;;;;;5002859;28;20042;-75
2022/10/03 07:57:54;;;;;;;17.00;3.08;;;10.90;99.90;;;;;;4965528;28;206487;-76
2022/10/03 08:00:35;;;;;;;14.40;2.90;;;11.10;99.90;;;;;;4973830;28;231931;-75
2022/10/03 08:03:14;;;;;;;;;;;11.20;99.90;;;;;;5006159;28;20138;-75
2022/10/03 08:06:14;;;;;;;17.80;2.88;;;11.30;99.90;;;;;;4994521;28;207241;-74
2022/10/03 08:09:07;;;;;;;17.83;2.53;;;11.40;99.90;;;;;;4998055;28;20071;-74
2022/10/03 08:11:54;;;;;;;18.95;2.90;;;11.60;99.90;;;;;;4974386;28;205814;-76
2022/10/03 08:14:45;;;;;;;16.67;2.45;;;11.80;99.90;;;;;;4997779;28;20057;-74
2022/10/03 08:17:40;;;;;;;14.48;2.17;;;11.90;99.90;;;;;;4970974;28;212124;-75
2022/10/03 08:20:30;;;;;;;14.00;2.03;;;12.00;99.90;;;;;;4998541;28;20050;-74
2022/10/03 08:23:30;;;;;;;13.88;1.92;;;12.10;99.90;;;;;;4963440;28;209149;-74
2022/10/03 08:26:16;;;;;;;13.63;1.98;;;12.30;99.90;;;;;;4972668;28;206858;-76
2022/10/03 08:29:07;;;;;;;16.50;1.92;;;12.40;99.90;;;;;;5016354;28;20061;-76
2022/10/03 08:31:52;;;;;;;;;;;12.50;99.90;;;;;;4966255;28;211505;-75
2022/10/03 08:34:48;;;;;;;11.75;1.75;;;12.60;99.90;;;;;;5007762;28;19941;-75
2022/10/03 08:37:29;;;;;;;13.30;1.77;;;12.70;99.90;;;;;;4980930;28;221891;-75
2022/10/03 08:40:28;;;;;;;13.63;1.90;;;12.90;99.90;;;;;;5009785;28;20053;-75
2022/10/03 08:43:28;;;;;;;14.82;2.63;;;13.00;99.90;;;;;;4948020;28;204511;-74
2022/10/03 08:46:06;;;;;;;14.95;1.75;;;13.10;99.90;;;;;;4958339;28;209535;-74
2022/10/03 08:49:09;;;;;;;15.90;2.05;;;13.40;99.90;;;;;;5008997;28;20533;-75
2022/10/03 08:51:48;;;;;;;15.32;1.80;;;13.50;99.90;;;;;;4991561;28;219759;-74
2022/10/03 08:54:44;;;;;;;11.93;1.77;;;13.70;99.90;;;;;;5000116;28;20058;-74
2022/10/03 08:57:19;;;;;;;11.85;1.80;;;13.80;99.90;;;;;;4985317;28;216196;-75
2022/10/03 09:00:14;;;;;;;13.95;1.80;;;14.00;99.90;;;;;;5014963;28;20072;-75
2022/10/03 09:02:59;;;;;;;13.15;1.77;;;14.00;99.90;;;;;;4961660;28;209698;-75
2022/10/03 09:05:36;;;;;;;10.87;1.60;;;14.10;99.90;;;;;;4960608;28;250432;-74
2022/10/03 09:08:33;;;;;;;15.02;1.92;;;14.20;99.90;;;;;;5008090;28;20062;-75
2022/10/03 09:11:37;;;;;;;14.32;1.75;;;14.30;99.90;;;;;;4978634;28;207842;-75
2022/10/03 09:14:18;;;;;;;14.43;1.90;;;14.40;99.90;;;;;;4992528;28;20415;-75
2022/10/03 09:17:18;;;;;;;11.63;2.10;;;14.50;99.90;;;;;;4967323;28;216317;-76
2022/10/03 09:19:59;;;;;;;14.23;1.98;;;14.60;99.90;;;;;;5010453;28;20057;-74
2022/10/03 09:22:44;;;;;;;;;;;14.70;99.90;;;;;;4988695;28;211432;-76
2022/10/03 09:25:28;;;;;;;14.90;2.20;;;14.80;99.90;;;;;;5023634;28;218987;-75
2022/10/03 09:28:28;;;;;;;15.80;2.33;;;15.10;99.90;;;;;;4979440;28;180131;-76
2022/10/03 09:31:28;;;;;;;13.93;1.75;;;15.60;99.90;;;;;;4967657;28;210857;-76
2022/10/03 09:33:54;;;;;;;14.15;1.88;;;16.40;99.90;;;;;;5002824;28;20054;-76
2022/10/03 09:36:36;;;;;;;12.20;1.70;;;17.00;99.90;;;;;;4970486;28;238412;-75
2022/10/03 09:39:07;;;;;;;13.38;1.65;;;17.00;99.90;;;;;;5008303;28;20147;-76
2022/10/03 09:41:48;;;;;;;9.80;1.50;;;17.30;99.90;;;;;;4990350;28;206058;-75
2022/10/03 09:44:33;;;;;;;10.55;1.55;;;17.40;99.90;;;;;;5017159;28;20610;-75
2022/10/03 09:47:50;;;;;;;14.55;1.80;;;17.00;99.90;;;;;;4980311;28;218153;-76
2022/10/03 09:50:37;;;;;;;17.02;1.80;;;17.60;99.90;;;;;;4928177;28;207829;-74
2022/10/03 09:53:37;;;;;;;10.40;1.48;;;18.30;99.90;;;;;;4940206;28;20140;-75
2022/10/03 09:56:22;;;;;;;13.48;1.73;;;18.70;99.90;;;;;;4912889;28;220451;-74
2022/10/03 09:59:10;;;;;;;10.98;1.42;;;18.80;99.90;;;;;;4940140;28;20058;-75
2022/10/03 10:02:03;;;;;;;11.95;1.75;;;19.10;99.90;;;;;;4919896;28;211072;-75
2022/10/03 10:05:13;;;;;;;12.05;1.60;;;19.40;99.90;;;;;;4899109;29;20066;-75
2022/10/03 10:08:10;;;;;;;10.13;1.77;;;19.30;99.90;;;;;;4832421;29;206285;-74
2022/10/03 10:10:56;;;;;;;11.15;1.60;;;19.20;99.90;;;;;;4823385;29;221145;-75
2022/10/03 10:13:45;;;;;;;10.38;1.67;;;19.20;99.90;;;;;;4854109;29;20052;-74
2022/10/03 10:16:27;;;;;;;10.95;1.63;;;19.50;99.90;;;;;;4819198;29;206895;-73
2022/10/03 10:19:30;;;;;;;11.55;1.55;;;19.60;99.90;;;;;;4870915;29;20037;-74
2022/10/03 10:22:29;;;;;;;10.43;1.65;;;19.30;99.90;;;;;;4830580;29;214208;-74
2022/10/03 10:25:14;;;;;;;13.98;1.70;;;19.30;99.90;;;;;;4860918;29;20056;-74
2022/10/03 10:27:49;;;;;;;10.98;1.98;;;19.30;99.90;;;;;;4850075;29;202984;-74
2022/10/03 10:30:18;;;;;;;10.82;1.65;;;19.50;99.90;;;;;;4891356;28;105816;-75
2022/10/03 10:33:20;;;;;;;11.68;1.80;;;19.60;99.90;;;;;;4927329;28;206704;-75
2022/10/03 10:35:50;;;;;;;10.07;1.20;;;20.00;99.90;;;;;;4875051;28;223180;-75
2022/10/03 10:38:42;;;;;;;10.38;1.40;;;19.80;98.40;;;;;;4912341;29;20064;-75
2022/10/03 10:41:45;;;;;;;8.63;1.38;;;19.70;99.50;;;;;;4888305;28;221460;-75
2022/10/03 10:44:54;;;;;;;9.45;1.25;;;20.00;99.40;;;;;;4961332;28;20512;-76
2022/10/03 10:48:05;;;;;;;8.27;1.25;;;20.10;99.90;;;;;;4913678;28;216505;-75
2022/10/03 10:50:55;;;;;;;10.10;1.50;;;19.80;98.20;;;;;;4918671;28;204585;-75
2022/10/03 10:53:55;;;;;;;9.18;1.40;;;19.20;98.80;;;;;;4971264;28;20046;-75
2022/10/03 10:56:42;;;;;;;12.63;1.55;;;19.20;99.50;;;;;;4928882;28;211574;-75
2022/10/03 10:59:39;;;;;;;9.88;1.70;;;19.40;99.90;;;;;;4982326;28;20436;-76
2022/10/03 11:02:56;;;;;;;9.30;1.50;;;19.60;99.20;;;;;;4924591;28;208742;-76
2022/10/03 11:05:41;;;;;;;9.30;1.60;;;19.60;99.10;;;;;;4932456;28;213965;-78
2022/10/03 11:08:22;;;;;;;8.77;1.33;;;19.70;98.30;;;;;;4954790;28;20574;-76
2022/10/03 11:11:30;;;;;;;9.25;1.73;;;19.70;98.80;;;;;;4921127;28;209917;-74
2022/10/03 11:14:34;;;;;;;10.93;1.38;;;20.00;98.60;;;;;;4905763;29;20052;-74
2022/10/03 11:17:03;;;;;;;8.20;1.35;;;20.40;98.30;;;;;;4874561;29;231014;-76
2022/10/03 11:19:37;;;;;;;11.20;1.58;;;20.90;98.50;;;;;;4894422;29;20067;-76
2022/10/03 11:22:41;;;;;;;10.00;1.52;;;20.50;98.60;;;;;;4896852;28;216447;-76
2022/10/03 11:25:49;;;;;;;11.77;1.77;;;20.60;97.90;;;;;;4962384;28;20662;-73
2022/10/03 11:28:49;;;;;;;10.00;1.30;;;20.30;97.10;;;;;;4891856;28;206916;-75
2022/10/03 11:31:48;;;;;;;9.82;1.65;;;19.80;98.20;;;;;;4897333;28;211253;-73
2022/10/03 11:34:33;;;;;;;10.73;1.50;;;19.70;99.40;;;;;;4937512;28;20500;-75
2022/10/03 11:37:08;;;;;;;9.73;1.40;;;19.60;99.60;;;;;;4910979;28;209470;-74
2022/10/03 11:39:51;;;;;;;9.63;1.50;;;19.30;99.10;;;;;;4929807;28;20051;-75
2022/10/03 11:42:17;;;;;;;9.00;1.33;;;19.60;98.70;;;;;;4914205;28;212103;-74
2022/10/03 11:45:16;;;;;;;9.65;1.38;;;20.00;98.80;;;;;;4937728;28;20047;-75
2022/10/03 11:47:55;;;;;;;10.25;1.83;;;20.80;99.00;;;;;;4881366;29;209773;-75
2022/10/03 11:50:28;;;;;;;12.70;1.52;;;20.30;97.80;;;;;;4870628;28;204070;-75
2022/10/03 11:53:27;;;;;;;12.32;1.70;;;19.80;98.10;;;;;;4962071;28;20059;-75
2022/10/03 11:55:53;;;;;;;8.93;1.30;;;19.90;97.80;;;;;;4923391;28;217883;-75
2022/10/03 11:58:52;;;;;;;11.00;1.70;;;19.80;98.80;;;;;;4977158;28;20055;-75
2022/10/03 12:01:27;;;;;;;8.75;1.35;;;20.20;98.40;;;;;;4878478;29;213166;-75
2022/10/03 12:04:16;;;;;;;9.38;1.45;;;20.40;99.10;;;;;;4931249;29;20056;-74
2022/10/03 12:09:58;;;;;;;7.63;1.20;;;20.70;97.50;;;;;;4928957;29;20444;-75
2022/10/03 12:12:42;;;;;;;8.43;1.33;;;20.50;98.50;;;;;;4868123;29;206740;-75
2022/10/03 12:15:20;;;;;;;9.73;1.60;;;20.50;97.70;;;;;;4929691;29;20067;-75
2022/10/03 12:18:04;;;;;;;9.57;1.40;;;20.20;98.50;;;;;;4861476;29;145427;-75
2022/10/03 12:20:45;;;;;;;10.33;1.57;;;20.10;98.50;;;;;;4879864;29;206824;-75
2022/10/03 12:23:19;;;;;;;;;;;20.10;98.90;;;;;;4895373;29;20070;-74
2022/10/03 12:25:48;;;;;;;9.95;1.52;;;20.40;98.10;;;;;;4908447;28;196066;-74
2022/10/03 12:28:23;;;;;;;11.30;1.75;;;20.80;99.00;;;;;;4959711;28;20066;-76
2022/10/03 12:31:01;;;;;;;9.48;1.30;;;21.10;97.90;;;;;;4920919;28;218153;-76
2022/10/03 12:33:44;;;;;;;8.80;1.38;;;21.00;97.50;;;;;;4945908;28;20047;-75
2022/10/03 12:36:24;;;;;;;9.75;1.75;;;20.40;97.20;;;;;;4908098;28;204612;-78
2022/10/03 12:39:14;;;;;;;9.77;1.63;;;19.80;97.90;;;;;;4965415;28;20061;-78
2022/10/03 12:41:52;;;;;;;9.95;1.55;;;19.60;98.30;;;;;;4955573;28;209878;-75
2022/10/03 12:44:29;;;;;;;9.95;1.38;;;19.90;98.90;;;;;;5016874;28;20046;-74
2022/10/03 12:47:29;;;;;;;8.13;1.35;;;20.20;98.60;;;;;;4955478;28;231168;-74
2022/10/03 12:50:12;;;;;;;9.23;1.50;;;20.20;98.20;;;;;;5013054;28;20058;-75
2022/10/03 12:52:56;;;;;;;11.15;1.50;;;19.90;98.10;;;;;;4977003;28;163089;-74
2022/10/03 12:55:35;;;;;;;9.50;1.40;;;19.60;98.50;;;;;;4975247;28;286648;-74
2022/10/03 12:58:38;;;;;;;9.80;1.20;;;19.70;99.10;;;;;;5014859;28;20512;-74
2022/10/03 13:01:37;;;;;;;8.85;1.50;;;19.80;98.50;;;;;;4970359;28;221689;-75
2022/10/03 13:04:06;;;;;;;11.20;1.65;;;19.60;98.90;;;;;;4999889;28;20061;-75
2022/10/03 13:06:52;;;;;;;11.40;1.60;;;19.60;99.30;;;;;;4967809;28;221015;-77
2022/10/03 13:09:50;;;;;;;12.93;1.70;;;19.50;99.00;;;;;;5036374;28;20054;-74
2022/10/03 13:12:26;;;;;;;11.57;1.67;;;19.50;98.70;;;;;;4953362;28;213229;-74
2022/10/03 13:15:30;;;;;;;10.10;1.40;;;19.30;99.40;;;;;;5002758;28;20050;-71
2022/10/03 13:18:17;;;;;;;9.80;1.35;;;19.20;99.00;;;;;;4981604;28;169638;-72
2022/10/03 13:21:10;;;;;;;9.82;1.45;;;19.30;99.30;;;;;;4958452;28;213774;-73
2022/10/03 13:23:46;;;;;;;9.27;1.38;;;19.80;99.70;;;;;;4961772;28;20570;-73
2022/10/03 13:26:18;;;;;;;10.43;1.42;;;20.10;98.70;;;;;;4943138;28;205416;-73
2022/10/03 13:29:22;;;;;;;8.27;1.35;;;20.30;98.70;;;;;;4981886;28;20055;-73
2022/10/03 13:32:00;;;;;;;10.07;1.42;;;20.40;99.10;;;;;;4948476;28;203892;-73
2022/10/03 13:34:31;;;;;;;8.20;1.20;;;20.60;98.50;;;;;;4985928;28;20063;-72
2022/10/03 13:37:08;;;;;;;;;;;20.70;98.60;;;;;;4951837;28;205219;-74
2022/10/03 13:39:45;;;;;;;9.93;1.30;;;21.00;98.20;;;;;;4965676;28;19925;-73
2022/10/03 13:42:20;;;;;;;9.52;1.30;;;21.30;98.10;;;;;;4939571;28;219352;-73
2022/10/03 13:44:54;;;;;;;8.10;1.30;;;21.70;97.90;;;;;;4997174;28;20058;-73
2022/10/03 13:47:41;;;;;;;9.93;1.55;;;22.00;97.70;;;;;;4946738;28;212705;-73
2022/10/03 13:50:38;;;;;;;9.85;1.33;;;22.30;97.50;;;;;;4978790;28;20046;-74
2022/10/03 13:53:42;;;;;;;9.73;1.55;;;22.80;96.10;;;;;;4951176;28;129203;-73
2022/10/03 13:56:18;;;;;;;8.23;1.70;;;22.70;94.80;;;;;;4931127;28;212855;-74
2022/10/03 13:58:49;;;;;;;7.95;1.30;;;21.60;96.00;;;;;;4989300;28;20058;-73
2022/10/03 14:01:44;;;;;;;8.73;1.40;;;21.20;96.70;;;;;;4965359;28;220341;-74
2022/10/03 14:04:29;;;;;;;7.38;1.10;;;21.00;96.70;;;;;;5011281;28;20054;-73
2022/10/03 14:07:08;;;;;;;10.48;1.40;;;20.90;97.10;;;;;;4979328;28;210493;-73
2022/10/03 14:09:53;;;;;;;9.23;1.45;;;20.90;97.40;;;;;;5008722;28;20061;-73
2022/10/03 14:12:38;;;;;;;9.93;1.52;;;20.90;97.40;;;;;;4979431;28;205698;-73
2022/10/03 14:15:16;;;;;;;10.45;1.60;;;21.00;97.20;;;;;;5020594;28;20431;-73
2022/10/03 14:18:01;;;;;;;10.55;1.40;;;21.10;97.40;;;;;;4972782;28;205478;-72
2022/10/03 14:20:59;;;;;;;8.77;1.40;;;21.10;97.00;;;;;;4956555;28;570966;-72
2022/10/03 14:24:01;;;;;;;9.18;1.50;;;21.10;97.10;;;;;;5023899;28;20049;-72
2022/10/03 14:27:03;;;;;;;7.90;1.40;;;20.90;96.70;;;;;;4924423;28;216116;-72
2022/10/03 14:30:01;;;;;;;9.32;1.30;;;20.70;97.30;;;;;;5005318;28;20050;-73
2022/10/03 14:32:52;;;;;;;9.52;1.40;;;20.70;97.30;;;;;;4952227;28;219452;-73
2022/10/03 14:35:40;;;;;;;10.05;1.60;;;20.60;97.70;;;;;;4969634;28;176287;-73
2022/10/03 14:38:56;;;;;;;10.55;1.40;;;20.70;97.70;;;;;;5014463;28;20042;-72